sensor_id;sensor_type;location;lat;lon;timestamp;pressure;altitude;pressure_sealevel;temperature;humidity
40596;BME280;26304;48.794;9.820;2024-03-22T00:01:37;97037.06;;;17.94;58.34
40596;BME280;26304;48.794;9.820;2024-03-22T00:03:59;97027.63;;;17.93;58.53
40596;BME280;26304;48.794;9.820;2024-03-22T00:06:21;97023.06;;;17.90;58.65
40596;BME280;26304;48.794;9.820;2024-03-22T00:08:43;97021.22;;;17.90;58.77
40596;BME280;26304;48.794;9.820;2024-03-22T00:11:05;97017.41;;;17.88;58.57
40596;BME280;26304;48.794;9.820;2024-03-22T00:13:26;97018.94;;;17.89;58.50
40596;BME280;26304;48.794;9.820;2024-03-22T00:15:49;97023.16;;;17.93;58.14
40596;BME280;26304;48.794;9.820;2024-03-22T00:18:12;97023.50;;;17.92;58.39
40596;BME280;26304;48.794;9.820;2024-03-22T00:20:34;97013.00;;;17.92;58.17
40596;BME280;26304;48.794;9.820;2024-03-22T00:22:55;97011.47;;;17.91;58.04
40596;BME280;26304;48.794;9.820;2024-03-22T00:25:18;97005.44;;;17.90;58.21
40596;BME280;26304;48.794;9.820;2024-03-22T00:27:39;96994.16;;;17.90;57.94
40596;BME280;26304;48.794;9.820;2024-03-22T00:30:02;96994.56;;;17.92;57.78
40596;BME280;26304;48.794;9.820;2024-03-22T00:32:24;97001.69;;;17.91;57.97
40596;BME280;26304;48.794;9.820;2024-03-22T00:34:47;97004.66;;;17.90;57.92
40596;BME280;26304;48.794;9.820;2024-03-22T00:37:09;97000.53;;;17.89;57.89
40596;BME280;26304;48.794;9.820;2024-03-22T00:39:31;96991.09;;;17.88;57.89
40596;BME280;26304;48.794;9.820;2024-03-22T00:41:52;97001.63;;;17.88;57.78
40596;BME280;26304;48.794;9.820;2024-03-22T00:44:15;96988.47;;;17.88;58.17
40596;BME280;26304;48.794;9.820;2024-03-22T00:46:36;96984.28;;;17.87;58.08
40596;BME280;26304;48.794;9.820;2024-03-22T00:48:58;96982.19;;;17.92;57.53
40596;BME280;26304;48.794;9.820;2024-03-22T00:51:21;96982.56;;;17.94;57.37
40596;BME280;26304;48.794;9.820;2024-03-22T00:53:44;96983.63;;;17.90;57.77
40596;BME280;26304;48.794;9.820;2024-03-22T00:56:06;96981.00;;;17.90;58.38
40596;BME280;26304;48.794;9.820;2024-03-22T00:58:29;96980.59;;;17.88;58.56
40596;BME280;26304;48.794;9.820;2024-03-22T01:00:50;96966.22;;;17.85;58.27
40596;BME280;26304;48.794;9.820;2024-03-22T01:03:13;96963.94;;;17.84;58.35
40596;BME280;26304;48.794;9.820;2024-03-22T01:05:34;96968.47;;;17.83;58.67
40596;BME280;26304;48.794;9.820;2024-03-22T01:07:58;96959.81;;;17.83;58.51
40596;BME280;26304;48.794;9.820;2024-03-22T01:10:19;96963.19;;;17.83;58.41
40596;BME280;26304;48.794;9.820;2024-03-22T01:12:42;96959.47;;;17.84;58.25
40596;BME280;26304;48.794;9.820;2024-03-22T01:15:04;96953.44;;;17.84;58.40
40596;BME280;26304;48.794;9.820;2024-03-22T01:17:27;96946.66;;;17.83;58.34
40596;BME280;26304;48.794;9.820;2024-03-22T01:19:48;96944.78;;;17.83;58.05
40596;BME280;26304;48.794;9.820;2024-03-22T01:22:11;96946.66;;;17.83;58.07
40596;BME280;26304;48.794;9.820;2024-03-22T01:24:34;96950.03;;;17.83;57.84
40596;BME280;26304;48.794;9.820;2024-03-22T01:26:56;96948.94;;;17.84;58.45
40596;BME280;26304;48.794;9.820;2024-03-22T01:29:17;96945.53;;;17.84;58.07
40596;BME280;26304;48.794;9.820;2024-03-22T01:31:40;96934.63;;;17.82;58.24
40596;BME280;26304;48.794;9.820;2024-03-22T01:34:01;96938.78;;;17.83;58.40
40596;BME280;26304;48.794;9.820;2024-03-22T01:36:24;96936.16;;;17.83;58.19
40596;BME280;26304;48.794;9.820;2024-03-22T01:38:45;96938.38;;;17.81;57.88
40596;BME280;26304;48.794;9.820;2024-03-22T01:41:09;96938.78;;;17.83;57.99
40596;BME280;26304;48.794;9.820;2024-03-22T01:43:30;96940.63;;;17.82;58.19
40596;BME280;26304;48.794;9.820;2024-03-22T01:45:53;96939.88;;;17.82;58.08
40596;BME280;26304;48.794;9.820;2024-03-22T01:48:15;96939.88;;;17.82;57.73
40596;BME280;26304;48.794;9.820;2024-03-22T01:50:37;96939.88;;;17.82;57.66
40596;BME280;26304;48.794;9.820;2024-03-22T01:52:59;96925.97;;;17.81;57.67
40596;BME280;26304;48.794;9.820;2024-03-22T01:55:23;96921.47;;;17.82;58.11
40596;BME280;26304;48.794;9.820;2024-03-22T01:57:46;96928.22;;;17.79;58.08
40596;BME280;26304;48.794;9.820;2024-03-22T02:00:10;96928.56;;;17.77;58.22
40596;BME280;26304;48.794;9.820;2024-03-22T02:02:31;96919.50;;;17.75;58.43
40596;BME280;26304;48.794;9.820;2024-03-22T02:04:54;96925.09;;;17.73;58.94
40596;BME280;26304;48.794;9.820;2024-03-22T02:07:15;96920.94;;;17.72;58.25
40596;BME280;26304;48.794;9.820;2024-03-22T02:09:37;96914.56;;;17.73;57.29
40596;BME280;26304;48.794;9.820;2024-03-22T02:11:59;96904.41;;;17.72;58.73
40596;BME280;26304;48.794;9.820;2024-03-22T02:14:23;96913.41;;;17.71;58.51
40596;BME280;26304;48.794;9.820;2024-03-22T02:16:44;96914.19;;;17.71;58.45
40596;BME280;26304;48.794;9.820;2024-03-22T02:19:07;96910.78;;;17.71;58.39
40596;BME280;26304;48.794;9.820;2024-03-22T02:21:29;96905.84;;;17.69;58.46
40596;BME280;26304;48.794;9.820;2024-03-22T02:23:52;96908.50;;;17.69;58.17
40596;BME280;26304;48.794;9.820;2024-03-22T02:26:14;96907.00;;;17.68;58.59
40596;BME280;26304;48.794;9.820;2024-03-22T02:28:36;96897.56;;;17.67;58.61
40596;BME280;26304;48.794;9.820;2024-03-22T02:30:58;96895.69;;;17.68;58.64
40596;BME280;26304;48.794;9.820;2024-03-22T02:33:20;96901.28;;;17.66;58.38
40596;BME280;26304;48.794;9.820;2024-03-22T02:35:42;96895.69;;;17.68;57.66
40596;BME280;26304;48.794;9.820;2024-03-22T02:38:05;96889.28;;;17.65;58.08
40596;BME280;26304;48.794;9.820;2024-03-22T02:40:27;96884.03;;;17.65;58.22
40596;BME280;26304;48.794;9.820;2024-03-22T02:42:50;96889.28;;;17.65;58.16
40596;BME280;26304;48.794;9.820;2024-03-22T02:45:11;96878.75;;;17.65;58.73
40596;BME280;26304;48.794;9.820;2024-03-22T02:47:34;96877.25;;;17.64;58.40
40596;BME280;26304;48.794;9.820;2024-03-22T02:49:55;96865.22;;;17.63;58.82
40596;BME280;26304;48.794;9.820;2024-03-22T02:52:17;96886.25;;;17.63;58.46
40596;BME280;26304;48.794;9.820;2024-03-22T02:54:39;96882.84;;;17.63;58.32
40596;BME280;26304;48.794;9.820;2024-03-22T02:57:03;96874.19;;;17.62;58.09
40596;BME280;26304;48.794;9.820;2024-03-22T02:59:25;96870.03;;;17.61;58.38
40596;BME280;26304;48.794;9.820;2024-03-22T03:01:48;96876.44;;;17.60;58.18
40596;BME280;26304;48.794;9.820;2024-03-22T03:04:09;96865.13;;;17.59;58.38
40596;BME280;26304;48.794;9.820;2024-03-22T03:06:31;96868.19;;;17.61;58.63
40596;BME280;26304;48.794;9.820;2024-03-22T03:08:53;96859.88;;;17.59;58.52
40596;BME280;26304;48.794;9.820;2024-03-22T03:11:15;96858.38;;;17.58;58.28
40596;BME280;26304;48.794;9.820;2024-03-22T03:13:38;96863.63;;;17.58;57.85
40596;BME280;26304;48.794;9.820;2024-03-22T03:16:02;96860.22;;;17.58;58.69
40596;BME280;26304;48.794;9.820;2024-03-22T03:18:23;96852.34;;;17.58;58.57
40596;BME280;26304;48.794;9.820;2024-03-22T03:20:46;96856.09;;;17.57;58.25
40596;BME280;26304;48.794;9.820;2024-03-22T03:23:07;96854.56;;;17.56;57.66
40596;BME280;26304;48.794;9.820;2024-03-22T03:25:29;96855.69;;;17.55;58.63
40596;BME280;26304;48.794;9.820;2024-03-22T03:27:51;96850.41;;;17.55;58.08
40596;BME280;26304;48.794;9.820;2024-03-22T03:30:15;96843.31;;;17.55;58.29
40596;BME280;26304;48.794;9.820;2024-03-22T03:32:36;96842.53;;;17.55;58.34
40596;BME280;26304;48.794;9.820;2024-03-22T03:34:59;96834.66;;;17.55;58.22
40596;BME280;26304;48.794;9.820;2024-03-22T03:37:20;96833.16;;;17.54;57.78
40596;BME280;26304;48.794;9.820;2024-03-22T03:39:43;96824.47;;;17.53;58.30
40596;BME280;26304;48.794;9.820;2024-03-22T03:42:04;96829.72;;;17.53;58.40
40596;BME280;26304;48.794;9.820;2024-03-22T03:44:26;96834.25;;;17.53;58.26
40596;BME280;26304;48.794;9.820;2024-03-22T03:46:49;96831.63;;;17.53;58.36
40596;BME280;26304;48.794;9.820;2024-03-22T03:49:12;96827.47;;;17.52;58.32
40596;BME280;26304;48.794;9.820;2024-03-22T03:51:33;96830.88;;;17.52;58.36
40596;BME280;26304;48.794;9.820;2024-03-22T03:53:55;96833.06;;;17.50;57.94
40596;BME280;26304;48.794;9.820;2024-03-22T03:56:17;96841.72;;;17.51;58.47
40596;BME280;26304;48.794;9.820;2024-03-22T03:58:39;96840.59;;;17.52;58.05
40596;BME280;26304;48.794;9.820;2024-03-22T04:01:05;96837.22;;;17.51;57.93
40596;BME280;26304;48.794;9.820;2024-03-22T04:03:28;96840.19;;;17.50;58.07
40596;BME280;26304;48.794;9.820;2024-03-22T04:05:56;96840.94;;;17.50;57.83
40596;BME280;26304;48.794;9.820;2024-03-22T04:08:18;96829.69;;;17.50;58.08
40596;BME280;26304;48.794;9.820;2024-03-22T04:10:40;96833.44;;;17.49;57.64
40596;BME280;26304;48.794;9.820;2024-03-22T04:13:02;96844.72;;;17.49;58.18
40596;BME280;26304;48.794;9.820;2024-03-22T04:15:24;96846.16;;;17.47;57.93
40596;BME280;26304;48.794;9.820;2024-03-22T04:17:46;96851.06;;;17.48;58.10
40596;BME280;26304;48.794;9.820;2024-03-22T04:20:10;96840.91;;;17.47;58.25
40596;BME280;26304;48.794;9.820;2024-03-22T04:22:33;96845.41;;;17.46;57.90
40596;BME280;26304;48.794;9.820;2024-03-22T04:24:54;96840.91;;;17.47;57.96
40596;BME280;26304;48.794;9.820;2024-03-22T04:27:17;96842.03;;;17.46;57.91
40596;BME280;26304;48.794;9.820;2024-03-22T04:29:38;96849.91;;;17.46;58.14
40596;BME280;26304;48.794;9.820;2024-03-22T04:32:00;96848.38;;;17.45;58.27
40596;BME280;26304;48.794;9.820;2024-03-22T04:34:22;96840.50;;;17.45;57.94
40596;BME280;26304;48.794;9.820;2024-03-22T04:36:46;96838.97;;;17.43;57.75
40596;BME280;26304;48.794;9.820;2024-03-22T04:39:07;96843.47;;;17.43;57.65
40596;BME280;26304;48.794;9.820;2024-03-22T04:41:30;96843.13;;;17.45;57.45
40596;BME280;26304;48.794;9.820;2024-03-22T04:43:53;96844.56;;;17.42;57.92
40596;BME280;26304;48.794;9.820;2024-03-22T04:46:15;96843.06;;;17.41;57.82
40596;BME280;26304;48.794;9.820;2024-03-22T04:48:38;96850.53;;;17.39;58.03
40596;BME280;26304;48.794;9.820;2024-03-22T04:50:59;96853.25;;;17.42;58.20
40596;BME280;26304;48.794;9.820;2024-03-22T04:53:23;96849.84;;;17.42;57.52
40596;BME280;26304;48.794;9.820;2024-03-22T04:55:45;96846.06;;;17.39;57.64
40596;BME280;26304;48.794;9.820;2024-03-22T04:58:07;96844.19;;;17.40;57.65
40596;BME280;26304;48.794;9.820;2024-03-22T05:00:29;96847.56;;;17.40;57.51
40596;BME280;26304;48.794;9.820;2024-03-22T05:02:51;96849.09;;;17.41;58.06
40596;BME280;26304;48.794;9.820;2024-03-22T05:05:12;96849.44;;;17.40;57.21
40596;BME280;26304;48.794;9.820;2024-03-22T05:07:35;96850.25;;;17.44;56.86
40596;BME280;26304;48.794;9.820;2024-03-22T05:09:58;96851.72;;;17.41;56.79
40596;BME280;26304;48.794;9.820;2024-03-22T05:12:20;96847.19;;;17.42;56.85
40596;BME280;26304;48.794;9.820;2024-03-22T05:14:42;96838.69;;;17.49;56.48
40596;BME280;26304;48.794;9.820;2024-03-22T05:17:04;96843.97;;;17.49;56.04
40596;BME280;26304;48.794;9.820;2024-03-22T05:19:26;96839.31;;;17.42;56.38
40596;BME280;26304;48.794;9.820;2024-03-22T05:21:49;96839.81;;;17.48;56.42
40596;BME280;26304;48.794;9.820;2024-03-22T05:24:10;96833.84;;;17.51;56.47
40596;BME280;26304;48.794;9.820;2024-03-22T05:26:34;96830.38;;;17.47;56.06
40596;BME280;26304;48.794;9.820;2024-03-22T05:28:57;96832.63;;;17.45;56.51
40596;BME280;26304;48.794;9.820;2024-03-22T05:31:20;96825.66;;;17.56;56.96
40596;BME280;26304;48.794;9.820;2024-03-22T05:33:41;96822.94;;;17.49;57.18
40596;BME280;26304;48.794;9.820;2024-03-22T05:36:04;96819.41;;;17.41;57.05
40596;BME280;26304;48.794;9.820;2024-03-22T05:38:25;96817.94;;;17.43;56.41
40596;BME280;26304;48.794;9.820;2024-03-22T05:40:48;96819.47;;;17.45;56.69
40596;BME280;26304;48.794;9.820;2024-03-22T05:43:10;96828.06;;;17.41;56.52
40596;BME280;26304;48.794;9.820;2024-03-22T05:45:33;96819.41;;;17.41;56.29
40596;BME280;26304;48.794;9.820;2024-03-22T05:47:54;96814.88;;;17.38;57.07
40596;BME280;26304;48.794;9.820;2024-03-22T05:50:17;96823.84;;;17.37;57.28
40596;BME280;26304;48.794;9.820;2024-03-22T05:52:38;96813.69;;;17.35;56.93
40596;BME280;26304;48.794;9.820;2024-03-22T05:55:01;96810.66;;;17.33;57.11
40596;BME280;26304;48.794;9.820;2024-03-22T05:57:22;96818.13;;;17.31;56.96
40596;BME280;26304;48.794;9.820;2024-03-22T05:59:46;96817.38;;;17.31;57.06
40596;BME280;26304;48.794;9.820;2024-03-22T06:02:09;96806.44;;;17.29;56.68
40596;BME280;26304;48.794;9.820;2024-03-22T06:04:32;96806.84;;;17.31;56.62
40596;BME280;26304;48.794;9.820;2024-03-22T06:06:54;96800.53;;;17.35;56.22
40596;BME280;26304;48.794;9.820;2024-03-22T06:09:16;96805.00;;;17.31;56.52
40596;BME280;26304;48.794;9.820;2024-03-22T06:11:44;96800.53;;;17.35;56.80
40596;BME280;26304;48.794;9.820;2024-03-22T06:14:07;96801.06;;;17.45;56.25
40596;BME280;26304;48.794;9.820;2024-03-22T06:16:30;96798.53;;;17.52;56.58
40596;BME280;26304;48.794;9.820;2024-03-22T06:18:52;96795.22;;;17.55;56.94
40596;BME280;26304;48.794;9.820;2024-03-22T06:21:13;96794.88;;;17.56;56.39
40596;BME280;26304;48.794;9.820;2024-03-22T06:23:36;96794.59;;;17.61;55.96
40596;BME280;26304;48.794;9.820;2024-03-22T06:25:58;96781.69;;;17.53;56.77
40596;BME280;26304;48.794;9.820;2024-03-22T06:28:21;96788.84;;;17.56;56.48
40596;BME280;26304;48.794;9.820;2024-03-22T06:30:42;96789.56;;;17.53;55.96
40596;BME280;26304;48.794;9.820;2024-03-22T06:33:06;96789.97;;;17.55;56.43
40596;BME280;26304;48.794;9.820;2024-03-22T06:35:28;96782.59;;;17.64;56.42
40596;BME280;26304;48.794;9.820;2024-03-22T06:37:50;96784.81;;;17.62;56.16
40596;BME280;26304;48.794;9.820;2024-03-22T06:40:12;96781.44;;;17.61;54.86
40596;BME280;26304;48.794;9.820;2024-03-22T06:42:34;96789.78;;;17.67;55.31
40596;BME280;26304;48.794;9.820;2024-03-22T06:44:56;96792.34;;;17.64;55.37
40596;BME280;26304;48.794;9.820;2024-03-22T06:47:18;96784.50;;;17.67;55.78
40596;BME280;26304;48.794;9.820;2024-03-22T06:49:43;96786.00;;;17.65;55.58
40596;BME280;26304;48.794;9.820;2024-03-22T06:52:05;96787.81;;;17.60;55.29
40596;BME280;26304;48.794;9.820;2024-03-22T06:54:27;96782.50;;;17.57;55.09
40596;BME280;26304;48.794;9.820;2024-03-22T06:56:49;96776.66;;;17.44;55.63
40596;BME280;26304;48.794;9.820;2024-03-22T06:59:11;96780.63;;;17.57;55.76
40596;BME280;26304;48.794;9.820;2024-03-22T07:01:33;96776.06;;;17.54;55.17
40596;BME280;26304;48.794;9.820;2024-03-22T07:03:54;96785.47;;;17.55;55.30
40596;BME280;26304;48.794;9.820;2024-03-22T07:06:18;96775.00;;;17.59;55.08
40596;BME280;26304;48.794;9.820;2024-03-22T07:08:40;96777.25;;;17.57;55.45
40596;BME280;26304;48.794;9.820;2024-03-22T07:11:05;96777.34;;;17.64;54.94
40596;BME280;26304;48.794;9.820;2024-03-22T07:13:27;96781.84;;;17.64;54.90
40596;BME280;26304;48.794;9.820;2024-03-22T07:15:49;96780.47;;;17.73;54.33
40596;BME280;26304;48.794;9.820;2024-03-22T07:18:11;96777.34;;;17.64;55.12
40596;BME280;26304;48.794;9.820;2024-03-22T07:20:33;96778.09;;;17.65;54.92
40596;BME280;26304;48.794;9.820;2024-03-22T07:22:56;96771.38;;;17.67;54.45
40596;BME280;26304;48.794;9.820;2024-03-22T07:25:19;96774.03;;;17.71;53.90
40596;BME280;26304;48.794;9.820;2024-03-22T07:27:40;96767.94;;;17.63;54.32
40596;BME280;26304;48.794;9.820;2024-03-22T07:30:03;96770.63;;;17.67;54.21
40596;BME280;26304;48.794;9.820;2024-03-22T07:32:26;96767.63;;;17.68;53.43
40596;BME280;26304;48.794;9.820;2024-03-22T07:34:48;96759.28;;;17.63;54.17
40596;BME280;26304;48.794;9.820;2024-03-22T07:37:10;96765.00;;;17.68;54.04
40596;BME280;26304;48.794;9.820;2024-03-22T07:39:33;96771.38;;;17.67;53.51
40596;BME280;26304;48.794;9.820;2024-03-22T07:41:56;96763.09;;;17.65;54.12
40596;BME280;26304;48.794;9.820;2024-03-22T07:44:18;96763.88;;;17.69;54.09
40596;BME280;26304;48.794;9.820;2024-03-22T07:46:40;96753.81;;;17.75;53.51
40596;BME280;26304;48.794;9.820;2024-03-22T07:49:03;96759.78;;;17.72;53.30
40596;BME280;26304;48.794;9.820;2024-03-22T07:51:25;96751.91;;;17.72;53.59
40596;BME280;26304;48.794;9.820;2024-03-22T07:53:48;96754.94;;;17.74;53.47
40596;BME280;26304;48.794;9.820;2024-03-22T07:56:11;96755.75;;;17.78;52.86
40596;BME280;26304;48.794;9.820;2024-03-22T07:58:33;96757.22;;;17.75;53.45
40596;BME280;26304;48.794;9.820;2024-03-22T08:00:55;96757.63;;;17.77;53.45
40596;BME280;26304;48.794;9.820;2024-03-22T08:03:17;96748.97;;;17.77;52.98
40596;BME280;26304;48.794;9.820;2024-03-22T08:05:39;96751.94;;;17.75;52.99
40596;BME280;26304;48.794;9.820;2024-03-22T08:08:01;96743.69;;;17.77;52.96
40596;BME280;26304;48.794;9.820;2024-03-22T08:10:23;96742.97;;;17.76;53.23
40596;BME280;26304;48.794;9.820;2024-03-22T08:12:46;96741.50;;;17.79;53.30
40596;BME280;26304;48.794;9.820;2024-03-22T08:15:08;96742.66;;;17.82;52.99
40596;BME280;26304;48.794;9.820;2024-03-22T08:17:31;96740.69;;;17.75;53.02
40596;BME280;26304;48.794;9.820;2024-03-22T08:19:52;96742.50;;;17.71;52.62
40596;BME280;26304;48.794;9.820;2024-03-22T08:22:15;96750.94;;;17.57;53.27
40596;BME280;26304;48.794;9.820;2024-03-22T08:24:36;96735.63;;;17.63;52.98
40596;BME280;26304;48.794;9.820;2024-03-22T08:26:59;96740.56;;;17.68;52.75
40596;BME280;26304;48.794;9.820;2024-03-22T08:29:22;96742.13;;;17.72;52.47
40596;BME280;26304;48.794;9.820;2024-03-22T08:31:44;96744.06;;;17.75;52.34
40596;BME280;26304;48.794;9.820;2024-03-22T08:34:07;96734.97;;;17.69;52.76
40596;BME280;26304;48.794;9.820;2024-03-22T08:36:32;96739.94;;;17.74;52.61
40596;BME280;26304;48.794;9.820;2024-03-22T08:38:54;96737.59;;;17.69;52.57
40596;BME280;26304;48.794;9.820;2024-03-22T08:41:16;96742.97;;;17.76;52.27
40596;BME280;26304;48.794;9.820;2024-03-22T08:43:37;96737.53;;;17.66;52.60
40596;BME280;26304;48.794;9.820;2024-03-22T08:46:01;96731.63;;;17.72;52.39
40596;BME280;26304;48.794;9.820;2024-03-22T08:48:24;96728.00;;;17.81;52.51
40596;BME280;26304;48.794;9.820;2024-03-22T08:50:47;96723.72;;;17.72;52.69
40596;BME280;26304;48.794;9.820;2024-03-22T08:53:08;96721.53;;;17.74;52.69
40596;BME280;26304;48.794;9.820;2024-03-22T08:55:31;96722.78;;;17.84;52.30
40596;BME280;26304;48.794;9.820;2024-03-22T08:57:52;96724.63;;;17.84;52.55
40596;BME280;26304;48.794;9.820;2024-03-22T09:00:15;96718.78;;;17.67;52.52
40596;BME280;26304;48.794;9.820;2024-03-22T09:02:38;96710.50;;;17.65;52.63
40596;BME280;26304;48.794;9.820;2024-03-22T09:05:00;96703.19;;;17.82;52.12
40596;BME280;26304;48.794;9.820;2024-03-22T09:07:22;96703.34;;;17.89;53.04
40596;BME280;26304;48.794;9.820;2024-03-22T09:09:44;96705.63;;;17.94;53.15
40596;BME280;26304;48.794;9.820;2024-03-22T09:12:07;96705.63;;;17.94;52.37
40596;BME280;26304;48.794;9.820;2024-03-22T09:14:29;96702.84;;;17.83;52.91
40596;BME280;26304;48.794;9.820;2024-03-22T09:16:51;96705.44;;;17.79;52.60
40596;BME280;26304;48.794;9.820;2024-03-22T09:19:15;96705.41;;;17.76;52.64
40596;BME280;26304;48.794;9.820;2024-03-22T09:21:36;96702.81;;;17.79;52.79
40596;BME280;26304;48.794;9.820;2024-03-22T09:23:59;96696.53;;;17.88;52.88
40596;BME280;26304;48.794;9.820;2024-03-22T09:26:20;96695.59;;;17.73;52.34
40596;BME280;26304;48.794;9.820;2024-03-22T09:28:45;96696.44;;;17.81;51.86
40596;BME280;26304;48.794;9.820;2024-03-22T09:31:07;96693.50;;;17.86;51.42
40596;BME280;26304;48.794;9.820;2024-03-22T09:33:29;96699.47;;;17.83;51.67
40596;BME280;26304;48.794;9.820;2024-03-22T09:35:52;96693.81;;;17.81;52.51
40596;BME280;26304;48.794;9.820;2024-03-22T09:38:14;96691.97;;;17.85;51.91
40596;BME280;26304;48.794;9.820;2024-03-22T09:40:38;96686.63;;;17.77;51.83
40596;BME280;26304;48.794;9.820;2024-03-22T09:43:02;96688.06;;;17.71;51.14
40596;BME280;26304;48.794;9.820;2024-03-22T09:45:25;96684.59;;;17.67;52.03
40596;BME280;26304;48.794;9.820;2024-03-22T09:47:48;96678.03;;;17.81;51.58
40596;BME280;26304;48.794;9.820;2024-03-22T09:50:12;96682.16;;;17.82;51.35
40596;BME280;26304;48.794;9.820;2024-03-22T09:52:37;96674.66;;;17.84;53.06
40596;BME280;26304;48.794;9.820;2024-03-22T09:54:59;96677.81;;;17.93;52.36
40596;BME280;26304;48.794;9.820;2024-03-22T09:57:24;96665.84;;;17.95;52.31
40596;BME280;26304;48.794;9.820;2024-03-22T09:59:47;96656.06;;;17.96;52.00
40596;BME280;26304;48.794;9.820;2024-03-22T10:02:11;96666.38;;;17.82;52.58
40596;BME280;26304;48.794;9.820;2024-03-22T10:04:33;96658.28;;;17.94;52.54
40596;BME280;26304;48.794;9.820;2024-03-22T10:06:57;96652.34;;;18.01;51.62
40596;BME280;26304;48.794;9.820;2024-03-22T10:09:28;96649.34;;;17.99;51.69
40596;BME280;26304;48.794;9.820;2024-03-22T10:11:51;96645.53;;;17.96;51.86
40596;BME280;26304;48.794;9.820;2024-03-22T10:14:12;96644.91;;;17.76;51.37
40596;BME280;26304;48.794;9.820;2024-03-22T10:16:35;96642.94;;;17.69;51.16
40596;BME280;26304;48.794;9.820;2024-03-22T10:18:56;96629.22;;;17.53;50.71
40596;BME280;26304;48.794;9.820;2024-03-22T10:21:19;96633.06;;;17.59;50.88
40596;BME280;26304;48.794;9.820;2024-03-22T10:23:40;96633.13;;;17.66;50.42
40596;BME280;26304;48.794;9.820;2024-03-22T10:26:07;96620.31;;;17.61;50.25
40596;BME280;26304;48.794;9.820;2024-03-22T10:28:30;96621.34;;;17.53;49.39
40596;BME280;26304;48.794;9.820;2024-03-22T10:30:53;96613.63;;;17.67;50.32
40596;BME280;26304;48.794;9.820;2024-03-22T10:33:15;96608.66;;;17.89;50.23
40596;BME280;26304;48.794;9.820;2024-03-22T10:35:41;96605.47;;;17.76;50.67
40596;BME280;26304;48.794;9.820;2024-03-22T10:38:03;96606.41;;;17.91;50.56
40596;BME280;26304;48.794;9.820;2024-03-22T10:40:27;96603.72;;;17.87;50.18
40596;BME280;26304;48.794;9.820;2024-03-22T10:42:50;96591.47;;;17.99;50.74
40596;BME280;26304;48.794;9.820;2024-03-22T10:45:13;96594.78;;;17.92;50.40
40596;BME280;26304;48.794;9.820;2024-03-22T10:47:35;96590.66;;;17.94;49.84
40596;BME280;26304;48.794;9.820;2024-03-22T10:50:04;96579.44;;;18.01;48.63
40596;BME280;26304;48.794;9.820;2024-03-22T10:52:27;96586.69;;;18.08;49.24
40596;BME280;26304;48.794;9.820;2024-03-22T10:54:50;96582.56;;;18.10;49.40
40596;BME280;26304;48.794;9.820;2024-03-22T10:57:13;96574.28;;;18.08;49.75
40596;BME280;26304;48.794;9.820;2024-03-22T10:59:41;96571.97;;;18.03;48.86
40596;BME280;26304;48.794;9.820;2024-03-22T11:02:03;96568.28;;;18.11;48.89
40596;BME280;26304;48.794;9.820;2024-03-22T11:04:30;96558.97;;;18.18;49.16
40596;BME280;26304;48.794;9.820;2024-03-22T11:06:51;96561.50;;;18.10;47.59
40596;BME280;26304;48.794;9.820;2024-03-22T11:09:18;96558.16;;;18.13;47.59
40596;BME280;26304;48.794;9.820;2024-03-22T11:11:42;96555.66;;;18.28;47.68
40596;BME280;26304;48.794;9.820;2024-03-22T11:14:05;96549.44;;;18.06;46.87
40596;BME280;26304;48.794;9.820;2024-03-22T11:16:27;96540.47;;;18.10;48.48
40596;BME280;26304;48.794;9.820;2024-03-22T11:18:50;96537.22;;;18.24;47.62
40596;BME280;26304;48.794;9.820;2024-03-22T11:21:12;96536.34;;;18.09;47.88
40596;BME280;26304;48.794;9.820;2024-03-22T11:23:35;96529.09;;;18.03;46.75
40596;BME280;26304;48.794;9.820;2024-03-22T11:25:57;96520.13;;;18.07;47.48
40596;BME280;26304;48.794;9.820;2024-03-22T11:28:20;96523.91;;;18.06;46.32
40596;BME280;26304;48.794;9.820;2024-03-22T11:30:42;96524.34;;;18.15;47.00
40596;BME280;26304;48.794;9.820;2024-03-22T11:33:05;96514.28;;;18.25;47.25
40596;BME280;26304;48.794;9.820;2024-03-22T11:35:27;96514.97;;;18.18;47.28
40596;BME280;26304;48.794;9.820;2024-03-22T11:37:50;96513.50;;;18.21;46.82
40596;BME280;26304;48.794;9.820;2024-03-22T11:40:12;96515.44;;;18.27;47.45
40596;BME280;26304;48.794;9.820;2024-03-22T11:42:34;96512.72;;;18.17;46.74
40596;BME280;26304;48.794;9.820;2024-03-22T11:44:56;96506.00;;;18.26;47.06
40596;BME280;26304;48.794;9.820;2024-03-22T11:47:19;96505.97;;;18.19;46.18
40596;BME280;26304;48.794;9.820;2024-03-22T11:49:42;96506.78;;;18.27;47.56
40596;BME280;26304;48.794;9.820;2024-03-22T11:52:07;96503.34;;;18.19;46.76
40596;BME280;26304;48.794;9.820;2024-03-22T11:54:29;96502.25;;;18.24;46.88
40596;BME280;26304;48.794;9.820;2024-03-22T11:56:52;96503.34;;;18.23;46.10
40596;BME280;26304;48.794;9.820;2024-03-22T11:59:19;96503.72;;;18.21;47.44
40596;BME280;26304;48.794;9.820;2024-03-22T12:01:42;96494.75;;;18.26;47.24
40596;BME280;26304;48.794;9.820;2024-03-22T12:04:04;96490.25;;;18.30;47.11
40596;BME280;26304;48.794;9.820;2024-03-22T12:06:29;96480.47;;;18.27;47.18
40596;BME280;26304;48.794;9.820;2024-03-22T12:08:51;96484.22;;;18.29;47.58
40596;BME280;26304;48.794;9.820;2024-03-22T12:11:13;96479.41;;;18.35;46.72
40596;BME280;26304;48.794;9.820;2024-03-22T12:13:35;96470.69;;;18.24;47.96
40596;BME280;26304;48.794;9.820;2024-03-22T12:15:57;96467.69;;;18.25;48.06
40596;BME280;26304;48.794;9.820;2024-03-22T12:18:19;96462.00;;;18.23;47.69
40596;BME280;26304;48.794;9.820;2024-03-22T12:20:41;96457.47;;;18.20;46.83
40596;BME280;26304;48.794;9.820;2024-03-22T12:23:04;96447.69;;;18.17;48.52
40596;BME280;26304;48.794;9.820;2024-03-22T12:25:26;96448.84;;;18.23;48.28
40596;BME280;26304;48.794;9.820;2024-03-22T12:27:48;96440.59;;;18.25;48.16
40596;BME280;26304;48.794;9.820;2024-03-22T12:30:11;96437.66;;;18.33;46.07
40596;BME280;26304;48.794;9.820;2024-03-22T12:32:33;96430.88;;;18.36;46.77
40596;BME280;26304;48.794;9.820;2024-03-22T12:34:55;96428.66;;;18.38;47.73